createdAt,value
2022-12-28T00:00:00.647Z,43.96
2022-12-28T00:00:22.748Z,43.92
2022-12-28T00:00:45.375Z,43.74
2022-12-28T00:01:08.025Z,43.84
2022-12-28T00:01:31.970Z,43.78
2022-12-28T00:01:54.983Z,44.01
2022-12-28T00:02:17.666Z,43.95
2022-12-28T00:02:39.407Z,43.84
2022-12-28T00:03:01.150Z,43.84
2022-12-28T00:03:22.967Z,43.84
2022-12-28T00:03:45.613Z,43.89
2022-12-28T00:04:08.303Z,43.91
2022-12-28T00:04:29.995Z,44.07
2022-12-28T00:04:51.699Z,43.99
2022-12-28T00:05:13.500Z,43.99
2022-12-28T00:05:36.349Z,43.99
2022-12-28T00:05:58.171Z,43.92
2022-12-28T00:06:22.968Z,43.91
2022-12-28T00:06:45.475Z,43.86
2022-12-28T00:07:08.132Z,43.82
2022-12-28T00:07:29.902Z,44.01
2022-12-28T00:07:51.585Z,44.14
2022-12-28T00:08:13.319Z,44.16
2022-12-28T00:08:36.049Z,44.18
2022-12-28T00:08:57.910Z,44.21
2022-12-28T00:09:19.677Z,44.29
2022-12-28T00:09:41.512Z,44.08
2022-12-28T00:10:04.435Z,44.16
2022-12-28T00:11:07.994Z,44.07
2022-12-28T00:11:18.621Z,44.03
2022-12-28T00:11:46.742Z,44.15
2022-12-28T00:12:08.723Z,44.22
2022-12-28T00:12:30.464Z,44.46
2022-12-28T00:12:52.093Z,44.49
2022-12-28T00:13:13.797Z,44.55
2022-12-28T00:13:37.114Z,44.45
2022-12-28T00:14:01.372Z,44.59
2022-12-28T00:14:23.090Z,44.55
2022-12-28T00:14:46.243Z,44.41
2022-12-28T00:15:09.370Z,44.21
2022-12-28T00:15:30.977Z,44.26
2022-12-28T00:15:52.617Z,44.05
2022-12-28T00:16:21.490Z,44.08
2022-12-28T00:16:43.999Z,44.14
2022-12-28T00:17:08.060Z,43.91
2022-12-28T00:17:29.773Z,44.21
2022-12-28T00:17:51.529Z,44.02
2022-12-28T00:18:13.106Z,44.05
2022-12-28T00:18:36.089Z,44.20
2022-12-28T00:18:59.177Z,44.11
2022-12-28T00:19:20.863Z,44.00
2022-12-28T00:19:45.916Z,43.94
2022-12-28T00:20:11.460Z,43.86
2022-12-28T00:20:33.147Z,43.74
2022-12-28T00:20:58.384Z,43.83
2022-12-28T00:21:21.091Z,43.68
2022-12-28T00:21:43.223Z,43.70
2022-12-28T00:22:04.939Z,43.71
2022-12-28T00:22:28.245Z,43.81
2022-12-28T00:22:49.870Z,43.68
2022-12-28T00:23:11.533Z,43.74
2022-12-28T00:23:33.931Z,43.79
2022-12-28T00:23:58.517Z,43.81
2022-12-28T00:24:23.583Z,43.69
2022-12-28T00:24:45.496Z,43.81
2022-12-28T00:25:08.330Z,43.79
2022-12-28T00:25:30.046Z,43.79
2022-12-28T00:25:52.400Z,43.77
2022-12-28T00:26:15.215Z,43.70
2022-12-28T00:26:36.938Z,43.62
2022-12-28T00:26:58.798Z,43.69
2022-12-28T00:27:20.637Z,43.84
2022-12-28T00:27:43.364Z,43.83
2022-12-28T00:28:05.079Z,43.82
2022-12-28T00:28:26.700Z,43.80
2022-12-28T00:28:48.617Z,43.90
2022-12-28T00:29:11.729Z,43.78
2022-12-28T00:29:33.363Z,43.92
2022-12-28T00:29:55.068Z,43.97
2022-12-28T00:30:16.974Z,44.08
2022-12-28T00:30:39.595Z,43.99
2022-12-28T00:31:01.533Z,43.97
2022-12-28T00:31:23.264Z,43.95
2022-12-28T00:31:45.884Z,44.09
2022-12-28T00:32:10.222Z,44.02
2022-12-28T00:32:31.928Z,44.18
2022-12-28T00:32:53.547Z,44.27
2022-12-28T00:33:15.220Z,44.15
2022-12-28T00:33:37.914Z,43.97
2022-12-28T00:33:59.702Z,44.10
2022-12-28T00:34:21.426Z,44.08
2022-12-28T00:34:43.114Z,44.13
2022-12-28T00:35:06.735Z,44.02
2022-12-28T00:35:28.806Z,44.00
2022-12-28T00:35:53.709Z,43.85
2022-12-28T00:36:15.854Z,43.96
2022-12-28T00:37:09.633Z,44.12
2022-12-28T00:37:20.162Z,44.10
2022-12-28T00:37:41.904Z,44.24
2022-12-28T00:38:04.653Z,44.40
2022-12-28T00:38:28.668Z,44.50
2022-12-28T00:38:50.527Z,44.55
2022-12-28T00:39:12.248Z,44.45
2022-12-28T00:39:34.967Z,44.49
2022-12-28T00:39:56.626Z,44.59
2022-12-28T00:40:23.762Z,44.63
2022-12-28T00:40:45.735Z,44.70
2022-12-28T00:41:08.981Z,44.75
2022-12-28T00:41:30.673Z,44.68
2022-12-28T00:41:52.390Z,44.62
2022-12-28T00:42:14.052Z,44.72
2022-12-28T00:42:36.731Z,44.77
2022-12-28T00:42:58.557Z,44.77
2022-12-28T00:43:20.663Z,44.65
2022-12-28T00:43:42.362Z,44.81
2022-12-28T00:44:04.268Z,44.86
2022-12-28T00:44:26.911Z,44.76
2022-12-28T00:44:48.622Z,44.83
2022-12-28T00:45:11.478Z,44.92
2022-12-28T00:45:33.217Z,44.84
2022-12-28T00:45:55.735Z,44.86
2022-12-28T00:46:18.540Z,45.14
2022-12-28T00:46:40.510Z,44.93
2022-12-28T00:47:02.253Z,44.82
2022-12-28T00:47:26.317Z,44.86
2022-12-28T00:47:48.125Z,44.86
2022-12-28T00:48:09.757Z,44.95
2022-12-28T00:48:33.112Z,44.85
2022-12-28T00:48:54.846Z,44.67
2022-12-28T00:49:17.493Z,44.67
2022-12-28T00:49:39.331Z,44.79
2022-12-28T00:50:01.077Z,44.75
2022-12-28T00:50:22.854Z,44.61
2022-12-28T00:50:46.333Z,44.55
2022-12-28T00:51:11.252Z,44.59
2022-12-28T00:51:33.101Z,44.49
2022-12-28T00:51:54.880Z,44.35
2022-12-28T00:52:18.718Z,44.39
2022-12-28T00:52:40.681Z,44.23
2022-12-28T00:53:02.389Z,44.17
2022-12-28T00:53:24.308Z,44.25
2022-12-28T00:53:46.218Z,44.16
2022-12-28T00:54:09.000Z,44.26
2022-12-28T00:54:30.680Z,44.06
2022-12-28T00:54:52.370Z,44.12
2022-12-28T00:55:14.112Z,43.99
2022-12-28T00:55:36.621Z,44.07
2022-12-28T00:56:08.401Z,44.19
2022-12-28T00:56:30.095Z,44.11
2022-12-28T00:56:51.810Z,44.06
2022-12-28T00:57:14.526Z,44.00
2022-12-28T00:57:37.349Z,43.97
2022-12-28T00:57:59.267Z,44.05
2022-12-28T00:58:20.967Z,44.00
2022-12-28T00:58:44.306Z,44.02
2022-12-28T00:59:06.230Z,43.94
2022-12-28T00:59:29.803Z,44.09
2022-12-28T00:59:51.511Z,44.18
2022-12-28T01:00:15.763Z,44.23
2022-12-28T01:00:38.282Z,44.25
2022-12-28T01:01:00.096Z,44.00
2022-12-28T01:01:23.565Z,44.32
2022-12-28T01:01:46.683Z,44.33
2022-12-28T01:02:09.112Z,43.97
2022-12-28T01:02:32.283Z,43.84
2022-12-28T01:02:55.667Z,43.92
2022-12-28T01:03:17.433Z,43.94
2022-12-28T01:03:39.139Z,44.10
2022-12-28T01:04:01.048Z,44.25
2022-12-28T01:04:23.795Z,44.11
2022-12-28T01:04:45.585Z,44.26
2022-12-28T01:05:12.927Z,44.44
2022-12-28T01:05:39.745Z,44.42
2022-12-28T01:06:05.377Z,44.41
2022-12-28T01:06:28.418Z,44.16
2022-12-28T01:06:51.147Z,44.20
2022-12-28T01:07:12.844Z,44.21
2022-12-28T01:07:35.426Z,44.27
2022-12-28T01:07:57.174Z,44.49
2022-12-28T01:08:19.810Z,44.51
2022-12-28T01:08:41.817Z,44.64
2022-12-28T01:09:03.536Z,44.70
2022-12-28T01:09:26.683Z,44.69
2022-12-28T01:09:49.696Z,44.74
2022-12-28T01:10:13.539Z,44.65
2022-12-28T01:10:35.282Z,44.60
2022-12-28T01:10:56.994Z,44.65
2022-12-28T01:11:22.049Z,44.73
2022-12-28T01:11:43.789Z,44.65
2022-12-28T01:12:05.738Z,44.75
2022-12-28T01:12:33.095Z,44.73
2022-12-28T01:12:58.952Z,44.69
2022-12-28T01:13:20.612Z,44.81
2022-12-28T01:13:42.687Z,44.64
2022-12-28T01:14:04.385Z,44.62
2022-12-28T01:14:27.038Z,44.64
2022-12-28T01:14:48.880Z,44.73
2022-12-28T01:15:12.386Z,44.80
2022-12-28T01:15:34.037Z,44.65
2022-12-28T01:15:55.693Z,44.64
2022-12-28T01:16:20.488Z,44.59
2022-12-28T01:16:42.780Z,44.54
2022-12-28T01:17:04.407Z,44.63
2022-12-28T01:17:27.151Z,44.87
2022-12-28T01:17:52.251Z,44.83
2022-12-28T01:18:15.082Z,44.92
2022-12-28T01:18:37.524Z,44.76
2022-12-28T01:19:02.303Z,44.76
2022-12-28T01:19:25.284Z,44.73
2022-12-28T01:19:53.600Z,44.92
2022-12-28T01:20:15.919Z,44.93
2022-12-28T01:20:40.846Z,44.90
2022-12-28T01:21:08.873Z,45.05
2022-12-28T01:21:32.921Z,45.24
2022-12-28T01:21:57.245Z,45.02
2022-12-28T01:22:19.833Z,44.91
2022-12-28T01:22:43.323Z,44.98
2022-12-28T01:23:04.986Z,45.07
2022-12-28T01:23:27.137Z,44.98
2022-12-28T01:23:50.436Z,45.08
2022-12-28T01:24:12.113Z,45.04
2022-12-28T01:24:33.857Z,45.34
2022-12-28T01:24:57.960Z,45.26
2022-12-28T01:25:20.669Z,45.41
2022-12-28T01:25:42.468Z,45.43
2022-12-28T01:26:04.991Z,45.47
2022-12-28T01:26:28.120Z,45.49
2022-12-28T01:26:51.411Z,45.51
2022-12-28T01:27:13.123Z,45.51
2022-12-28T01:27:34.772Z,45.29
2022-12-28T01:27:57.866Z,45.59
2022-12-28T01:28:20.777Z,45.66
2022-12-28T01:28:42.618Z,45.65
2022-12-28T01:29:04.359Z,45.71
2022-12-28T01:29:26.825Z,45.60
2022-12-28T01:29:50.992Z,45.50
2022-12-28T01:30:14.090Z,45.40
2022-12-28T01:30:38.851Z,45.48
2022-12-28T01:31:04.599Z,45.67
2022-12-28T01:31:26.990Z,45.57
2022-12-28T01:31:49.651Z,45.58
2022-12-28T01:32:11.445Z,45.76
2022-12-28T01:32:33.190Z,45.77
2022-12-28T01:32:58.945Z,45.67
2022-12-28T01:33:21.539Z,45.86
2022-12-28T01:33:43.286Z,45.90
2022-12-28T01:34:04.929Z,45.78
2022-12-28T01:34:28.524Z,45.94
2022-12-28T01:34:51.249Z,45.92
2022-12-28T01:35:13.978Z,45.98
2022-12-28T01:35:36.749Z,45.86
2022-12-28T01:35:58.832Z,45.66
2022-12-28T01:36:22.918Z,45.91
2022-12-28T01:36:44.744Z,45.90
2022-12-28T01:37:06.514Z,46.05
2022-12-28T01:37:30.831Z,45.98
2022-12-28T01:37:52.913Z,45.72
2022-12-28T01:38:14.632Z,45.68
2022-12-28T01:38:36.656Z,45.80
2022-12-28T01:39:01.413Z,45.92
2022-12-28T01:39:23.143Z,45.88
2022-12-28T01:39:44.875Z,45.71
2022-12-28T01:40:09.080Z,45.67
2022-12-28T01:40:30.840Z,45.68
2022-12-28T01:40:52.626Z,45.83
2022-12-28T01:41:16.590Z,45.81
2022-12-28T01:41:41.884Z,45.84
2022-12-28T01:42:03.822Z,45.86
2022-12-28T01:42:25.617Z,45.74
2022-12-28T01:42:47.687Z,45.74
2022-12-28T01:43:14.338Z,45.67
2022-12-28T01:44:19.863Z,45.81
2022-12-28T01:44:43.879Z,45.69
2022-12-28T01:45:17.809Z,45.79
2022-12-28T01:45:40.099Z,45.69
2022-12-28T01:46:01.906Z,45.67
2022-12-28T01:46:28.847Z,45.64
2022-12-28T01:46:54.887Z,45.83
2022-12-28T01:47:21.618Z,45.77
2022-12-28T01:47:45.657Z,45.57
2022-12-28T01:48:21.738Z,45.50
2022-12-28T01:48:50.870Z,45.71
2022-12-28T01:49:18.329Z,45.91
2022-12-28T01:49:47.501Z,45.87
2022-12-28T01:50:12.783Z,45.85
2022-12-28T01:50:35.369Z,45.69
2022-12-28T01:50:57.076Z,45.79
2022-12-28T01:51:20.938Z,46.04
2022-12-28T01:51:52.352Z,45.97
2022-12-28T01:52:17.931Z,45.96
2022-12-28T01:52:42.410Z,45.87
2022-12-28T01:53:06.568Z,45.80
2022-12-28T01:53:28.470Z,45.75
2022-12-28T01:53:52.951Z,45.53
2022-12-28T01:54:16.885Z,45.50
2022-12-28T01:54:43.600Z,45.47
2022-12-28T01:55:10.169Z,45.72
2022-12-28T01:55:34.894Z,45.90
2022-12-28T01:55:56.616Z,45.68
2022-12-28T01:56:18.658Z,45.71
2022-12-28T01:56:43.829Z,45.68
2022-12-28T01:57:05.905Z,45.68
2022-12-28T01:57:30.841Z,45.79
2022-12-28T01:57:57.438Z,45.70
2022-12-28T01:58:22.346Z,45.55
2022-12-28T01:58:46.394Z,45.60
2022-12-28T01:59:09.284Z,45.69
2022-12-28T01:59:38.107Z,45.68
2022-12-28T02:00:03.626Z,45.67
2022-12-28T02:00:35.731Z,45.66
2022-12-28T02:00:57.607Z,45.71
2022-12-28T02:01:19.619Z,45.71
2022-12-28T02:01:41.602Z,45.74
2022-12-28T02:02:03.904Z,45.81
2022-12-28T02:02:27.635Z,45.67
2022-12-28T02:02:55.952Z,45.48
2022-12-28T02:03:22.189Z,45.43
2022-12-28T02:03:44.889Z,45.49
2022-12-28T02:04:07.697Z,45.55
2022-12-28T02:04:29.977Z,45.59
2022-12-28T02:04:53.951Z,45.65
2022-12-28T02:05:18.178Z,45.76
2022-12-28T02:05:45.455Z,45.80
2022-12-28T02:06:10.904Z,45.56
2022-12-28T02:06:35.840Z,45.65
2022-12-28T02:06:57.633Z,45.64
2022-12-28T02:07:33.128Z,45.90
2022-12-28T02:08:02.337Z,45.79
2022-12-28T02:08:33.961Z,45.62
2022-12-28T02:09:02.527Z,45.56
2022-12-28T02:09:31.646Z,45.47
2022-12-28T02:10:43.570Z,45.46
2022-12-28T02:10:44.378Z,45.46
2022-12-28T02:11:10.180Z,45.61
2022-12-28T02:11:33.429Z,45.48
2022-12-28T02:11:55.597Z,45.81
2022-12-28T02:12:20.885Z,45.79
2022-12-28T02:12:45.654Z,45.80
2022-12-28T02:13:09.319Z,45.80
2022-12-28T02:13:33.911Z,45.84
2022-12-28T02:13:58.820Z,46.00
2022-12-28T02:14:22.407Z,45.96
2022-12-28T02:14:47.810Z,45.68
2022-12-28T02:15:10.534Z,45.74
2022-12-28T02:15:33.447Z,45.73
2022-12-28T02:15:55.554Z,45.57
2022-12-28T02:16:17.322Z,45.51
2022-12-28T02:16:39.511Z,45.67
2022-12-28T02:17:03.360Z,45.60
2022-12-28T02:17:27.172Z,45.57
2022-12-28T02:17:50.874Z,45.69
2022-12-28T02:18:15.135Z,45.64
2022-12-28T02:18:40.142Z,45.63
2022-12-28T02:19:05.386Z,45.74
2022-12-28T02:19:41.577Z,45.75
2022-12-28T02:20:05.917Z,45.83
2022-12-28T02:20:40.233Z,45.65
2022-12-28T02:21:22.384Z,45.61
2022-12-28T02:22:05.237Z,45.70
2022-12-28T02:22:57.415Z,45.57
2022-12-28T02:23:39.997Z,45.24
2022-12-28T02:24:42.815Z,45.67
2022-12-28T02:25:26.983Z,45.49
2022-12-28T02:26:18.635Z,45.47
2022-12-28T02:26:55.128Z,45.28
2022-12-28T02:27:29.031Z,45.36
2022-12-28T02:28:02.210Z,45.47
2022-12-28T02:28:49.544Z,45.55
2022-12-28T02:29:45.589Z,45.46
2022-12-28T02:30:09.775Z,45.77
2022-12-28T02:30:35.379Z,45.78
2022-12-28T02:31:03.232Z,45.73
2022-12-28T02:31:33.406Z,45.82
2022-12-28T02:32:03.895Z,45.71
2022-12-28T02:32:45.498Z,45.71
2022-12-28T02:33:14.543Z,45.49
2022-12-28T02:33:43.319Z,45.40
2022-12-28T02:34:14.305Z,45.52
2022-12-28T02:34:47.267Z,45.66
2022-12-28T02:35:15.316Z,45.49
2022-12-28T02:35:46.275Z,45.29
2022-12-28T02:36:18.722Z,45.33
2022-12-28T02:36:47.220Z,45.42
2022-12-28T02:37:18.263Z,45.61
2022-12-28T02:37:47.556Z,45.49
2022-12-28T02:38:16.484Z,45.36
2022-12-28T02:38:42.636Z,45.25
2022-12-28T02:39:09.491Z,45.41
2022-12-28T02:39:39.842Z,45.46
2022-12-28T02:40:07.999Z,45.39
2022-12-28T02:40:37.750Z,45.35
2022-12-28T02:41:05.034Z,45.25
2022-12-28T02:41:27.589Z,45.38
2022-12-28T02:41:53.854Z,45.37
2022-12-28T02:42:19.916Z,45.59
2022-12-28T02:42:47.204Z,45.49
2022-12-28T02:43:09.202Z,45.43
2022-12-28T02:43:33.646Z,45.51
2022-12-28T02:43:59.507Z,45.54
2022-12-28T02:44:36.483Z,45.45
2022-12-28T02:45:17.570Z,45.34
2022-12-28T02:45:59.461Z,45.34
2022-12-28T02:46:44.965Z,45.29
2022-12-28T02:47:33.348Z,45.54
2022-12-28T02:48:15.358Z,45.58
2022-12-28T02:49:00.200Z,45.41
2022-12-28T02:49:42.209Z,45.26
2022-12-28T02:50:11.199Z,45.40
2022-12-28T02:50:45.133Z,45.53
2022-12-28T02:51:20.168Z,45.65
2022-12-28T02:52:00.431Z,45.68
2022-12-28T02:52:33.505Z,45.77
2022-12-28T02:53:14.058Z,45.47
2022-12-28T02:54:04.811Z,45.48
2022-12-28T02:55:06.055Z,45.30
2022-12-28T02:56:05.084Z,45.26
2022-12-28T02:56:41.500Z,45.33
2022-12-28T02:57:15.283Z,45.19
2022-12-28T02:57:55.098Z,45.25
2022-12-28T02:58:52.365Z,45.43
2022-12-28T02:59:37.524Z,45.44
2022-12-28T03:00:06.847Z,45.52
2022-12-28T03:00:35.787Z,45.51
2022-12-28T03:01:12.873Z,45.32
2022-12-28T03:01:52.280Z,45.11
2022-12-28T03:02:25.521Z,45.10
2022-12-28T03:03:15.613Z,45.14
2022-12-28T03:03:46.385Z,45.31
2022-12-28T03:04:17.522Z,45.17
2022-12-28T03:04:53.941Z,45.07
2022-12-28T03:05:48.522Z,45.07
2022-12-28T03:06:35.370Z,45.21
2022-12-28T03:07:24.931Z,45.26
2022-12-28T03:08:25.531Z,45.51
2022-12-28T03:08:56.367Z,45.48
2022-12-28T03:09:25.654Z,45.33
2022-12-28T03:09:52.350Z,45.14
2022-12-28T03:10:20.047Z,45.19
2022-12-28T03:10:46.558Z,45.15
2022-12-28T03:11:10.505Z,45.07
2022-12-28T03:11:44.077Z,45.26
2022-12-28T03:12:11.865Z,45.34
2022-12-28T03:12:46.354Z,45.30
2022-12-28T03:13:28.150Z,45.20
2022-12-28T03:13:56.699Z,45.01
2022-12-28T03:14:26.778Z,45.03
2022-12-28T03:14:53.965Z,45.17
2022-12-28T03:15:29.785Z,45.03
2022-12-28T03:15:53.938Z,45.01
2022-12-28T03:16:20.177Z,45.12
2022-12-28T03:17:03.967Z,45.03
2022-12-28T03:17:46.485Z,45.05
2022-12-28T03:18:32.094Z,44.86
2022-12-28T03:19:18.675Z,44.86
2022-12-28T03:20:03.207Z,44.89
2022-12-28T03:20:47.303Z,45.05
2022-12-28T03:21:29.139Z,44.88
2022-12-28T03:22:13.324Z,44.98
2022-12-28T03:22:57.346Z,44.85
2022-12-28T03:23:42.061Z,45.00
2022-12-28T03:24:24.094Z,45.01
2022-12-28T03:25:04.493Z,44.95
2022-12-28T03:25:50.543Z,44.80
2022-12-28T03:26:40.002Z,44.92
2022-12-28T03:27:22.267Z,45.04
2022-12-28T03:28:08.695Z,45.33
2022-12-28T03:28:53.630Z,45.11
2022-12-28T03:29:38.083Z,45.26
2022-12-28T03:30:22.506Z,45.26
2022-12-28T03:31:07.272Z,45.32
2022-12-28T03:31:35.012Z,45.28
2022-12-28T03:32:02.753Z,45.33
2022-12-28T03:32:24.825Z,45.19
2022-12-28T03:32:50.291Z,45.17
2022-12-28T03:33:12.658Z,45.20
2022-12-28T03:33:39.011Z,45.26
2022-12-28T03:34:06.861Z,45.24
2022-12-28T03:34:37.872Z,45.12
2022-12-28T03:35:00.703Z,44.77
2022-12-28T03:35:31.666Z,45.02
2022-12-28T03:36:01.981Z,45.08
2022-12-28T03:36:30.870Z,44.97
2022-12-28T03:37:02.794Z,44.91
2022-12-28T03:37:31.438Z,44.97
2022-12-28T03:37:59.280Z,44.79
2022-12-28T03:38:28.411Z,44.88
2022-12-28T03:39:00.557Z,44.86
2022-12-28T03:39:33.644Z,44.80
2022-12-28T03:40:01.787Z,44.73
2022-12-28T03:40:33.919Z,44.83
2022-12-28T03:41:06.871Z,44.73
2022-12-28T03:41:34.720Z,44.94
2022-12-28T03:42:34.587Z,44.96
2022-12-28T03:43:22.113Z,45.36
2022-12-28T03:43:49.545Z,45.28
2022-12-28T03:44:18.533Z,45.40
2022-12-28T03:44:42.797Z,45.57
2022-12-28T03:45:46.103Z,45.53
2022-12-28T03:46:04.873Z,45.44
2022-12-28T03:46:31.763Z,45.68
2022-12-28T03:46:58.578Z,45.54
2022-12-28T03:47:24.082Z,45.42
2022-12-28T03:47:48.695Z,45.20
2022-12-28T03:48:11.418Z,45.29
2022-12-28T03:48:34.420Z,45.27
2022-12-28T03:49:00.422Z,45.11
2022-12-28T03:49:24.332Z,45.02
2022-12-28T03:49:46.536Z,44.95
2022-12-28T03:50:10.065Z,45.21
2022-12-28T03:50:36.101Z,45.16
2022-12-28T03:50:57.848Z,45.21
2022-12-28T03:51:21.956Z,45.09
2022-12-28T03:51:48.084Z,45.21
2022-12-28T03:52:13.316Z,45.46
2022-12-28T03:52:35.382Z,45.33
2022-12-28T03:52:58.839Z,45.32
2022-12-28T03:53:27.818Z,45.07
2022-12-28T03:53:52.510Z,45.10
2022-12-28T03:54:17.741Z,45.11
2022-12-28T03:54:40.009Z,44.97
2022-12-28T03:55:04.086Z,44.90
2022-12-28T03:55:27.828Z,45.06
2022-12-28T03:55:49.565Z,44.99
2022-12-28T03:56:16.884Z,44.89
2022-12-28T03:56:46.047Z,44.87
2022-12-28T03:57:09.569Z,44.93
2022-12-28T03:57:35.517Z,44.84
2022-12-28T03:57:59.570Z,45.06
2022-12-28T03:58:24.000Z,44.94
2022-12-28T03:58:48.829Z,45.13
2022-12-28T03:59:13.217Z,44.81
2022-12-28T03:59:38.183Z,45.12
2022-12-28T04:00:01.438Z,45.08
2022-12-28T04:00:25.983Z,45.01
2022-12-28T04:00:49.388Z,44.87
2022-12-28T04:01:12.049Z,44.79
2022-12-28T04:01:35.397Z,44.73
2022-12-28T04:01:57.391Z,44.66
2022-12-28T04:02:20.258Z,44.78
2022-12-28T04:02:42.953Z,44.94
2022-12-28T04:03:05.357Z,45.01
2022-12-28T04:03:29.035Z,44.84
2022-12-28T04:03:52.639Z,45.09
2022-12-28T04:04:14.447Z,45.20
2022-12-28T04:04:38.703Z,45.12
2022-12-28T04:05:00.360Z,45.07
2022-12-28T04:05:22.495Z,44.94
2022-12-28T04:05:45.414Z,45.05
2022-12-28T04:06:08.617Z,44.94
2022-12-28T04:06:30.366Z,44.75
2022-12-28T04:06:52.451Z,44.87
2022-12-28T04:07:16.605Z,44.75
2022-12-28T04:07:38.508Z,45.00
2022-12-28T04:08:00.258Z,44.92
2022-12-28T04:08:22.236Z,44.82
2022-12-28T04:08:45.900Z,44.74
2022-12-28T04:09:07.729Z,44.76
2022-12-28T04:09:34.159Z,44.80
2022-12-28T04:09:56.156Z,44.86
2022-12-28T04:10:20.046Z,44.70
2022-12-28T04:10:42.387Z,44.76
2022-12-28T04:11:04.541Z,44.63
2022-12-28T04:11:26.584Z,44.64
2022-12-28T04:11:51.723Z,44.86
2022-12-28T04:12:21.406Z,45.06
2022-12-28T04:13:16.755Z,44.86
2022-12-28T04:13:48.646Z,44.68
2022-12-28T04:14:11.869Z,44.74
2022-12-28T04:14:38.503Z,44.67
2022-12-28T04:15:00.326Z,44.66
2022-12-28T04:15:24.479Z,45.18
2022-12-28T04:15:55.778Z,45.07
2022-12-28T04:16:18.944Z,45.19
2022-12-28T04:16:41.552Z,45.23
2022-12-28T04:17:08.547Z,45.15
2022-12-28T04:17:31.011Z,45.11
2022-12-28T04:17:55.590Z,45.13
2022-12-28T04:18:19.318Z,44.96
2022-12-28T04:18:41.971Z,44.85
2022-12-28T04:19:04.362Z,45.04
2022-12-28T04:19:26.658Z,45.07
2022-12-28T04:19:49.638Z,45.15
2022-12-28T04:20:11.477Z,45.02
2022-12-28T04:20:33.566Z,44.87
2022-12-28T04:20:56.309Z,44.78
2022-12-28T04:21:19.035Z,44.87
2022-12-28T04:21:40.884Z,44.80
2022-12-28T04:22:02.782Z,44.98
2022-12-28T04:22:24.439Z,44.81
2022-12-28T04:22:46.247Z,44.74
2022-12-28T04:23:08.972Z,45.10
2022-12-28T04:23:31.708Z,44.88
2022-12-28T04:24:22.407Z,45.05
2022-12-28T04:24:45.089Z,45.06
2022-12-28T04:25:07.367Z,45.06
2022-12-28T04:25:30.052Z,45.02
2022-12-28T04:26:00.172Z,45.08
2022-12-28T04:26:23.506Z,45.14
2022-12-28T04:26:47.695Z,44.96
2022-12-28T04:27:09.477Z,44.96
2022-12-28T04:27:31.270Z,44.85
2022-12-28T04:27:59.021Z,44.65
2022-12-28T04:28:43.840Z,44.91
2022-12-28T04:29:24.938Z,44.41
2022-12-28T04:29:52.453Z,44.69
2022-12-28T04:30:15.143Z,44.69
2022-12-28T04:30:38.144Z,44.80
2022-12-28T04:31:02.092Z,44.66
2022-12-28T04:31:24.626Z,44.55
2022-12-28T04:31:52.721Z,44.36
2022-12-28T04:32:15.830Z,44.57
2022-12-28T04:32:37.745Z,44.42
2022-12-28T04:33:01.603Z,44.73
2022-12-28T04:33:24.593Z,44.47
2022-12-28T04:33:46.196Z,44.81
2022-12-28T04:34:08.205Z,44.72
2022-12-28T04:34:34.949Z,44.48
2022-12-28T04:35:04.610Z,44.50
2022-12-28T04:35:34.161Z,44.73
2022-12-28T04:36:06.721Z,44.52
2022-12-28T04:36:28.868Z,44.45
2022-12-28T04:36:51.442Z,44.59
2022-12-28T04:37:16.994Z,44.74
2022-12-28T04:37:38.684Z,44.68
2022-12-28T04:38:00.530Z,44.58
2022-12-28T04:38:22.305Z,44.62
2022-12-28T04:38:44.937Z,44.51
2022-12-28T04:39:06.627Z,44.50
2022-12-28T04:39:28.564Z,44.51
2022-12-28T04:40:11.350Z,44.57
2022-12-28T04:40:34.462Z,44.39
2022-12-28T04:40:56.165Z,44.49
2022-12-28T04:41:18.474Z,44.27
2022-12-28T04:41:40.158Z,44.40
2022-12-28T04:42:02.822Z,44.59
2022-12-28T04:42:26.262Z,44.63
2022-12-28T04:42:47.996Z,44.51
2022-12-28T04:43:09.763Z,44.75
2022-12-28T04:43:33.976Z,44.68
2022-12-28T04:43:56.028Z,44.73
2022-12-28T04:44:17.797Z,44.85
2022-12-28T04:44:39.452Z,44.75
2022-12-28T04:45:02.077Z,44.52
2022-12-28T04:45:23.677Z,44.66
2022-12-28T04:45:56.312Z,44.67
2022-12-28T04:46:18.162Z,44.46
2022-12-28T04:46:41.260Z,44.54
2022-12-28T04:47:03.111Z,44.88
2022-12-28T04:47:24.790Z,44.79
2022-12-28T04:47:46.721Z,44.85
2022-12-28T04:48:08.493Z,44.99
2022-12-28T04:48:31.852Z,44.83
2022-12-28T04:48:53.688Z,44.84
2022-12-28T04:49:15.311Z,44.67
2022-12-28T04:49:37.249Z,44.90
2022-12-28T04:50:00.329Z,44.95
2022-12-28T04:50:22.191Z,44.85
2022-12-28T04:50:43.913Z,44.71
2022-12-28T04:51:08.020Z,44.79
2022-12-28T04:51:31.317Z,44.67
2022-12-28T04:51:53.145Z,44.56
2022-12-28T04:52:14.935Z,44.80
2022-12-28T04:52:36.553Z,44.77
2022-12-28T04:53:00.007Z,44.56
2022-12-28T04:53:22.473Z,44.59
2022-12-28T04:53:44.459Z,44.57
2022-12-28T04:54:07.184Z,44.70
2022-12-28T04:54:29.085Z,44.72
2022-12-28T04:54:50.813Z,44.72
2022-12-28T04:55:31.873Z,44.57
2022-12-28T04:55:58.541Z,44.54
2022-12-28T04:56:22.336Z,44.51
2022-12-28T04:56:44.096Z,44.61
2022-12-28T04:57:06.753Z,44.52
2022-12-28T04:57:29.487Z,44.39
2022-12-28T04:57:51.168Z,44.38
2022-12-28T04:58:13.264Z,44.31
2022-12-28T04:58:35.476Z,44.20
2022-12-28T04:59:00.615Z,44.18
2022-12-28T04:59:22.657Z,44.13
2022-12-28T04:59:44.472Z,44.20
2022-12-28T05:00:07.478Z,44.01
2022-12-28T05:00:30.213Z,43.99
2022-12-28T05:00:53.379Z,43.91
2022-12-28T05:01:17.119Z,43.90
2022-12-28T05:01:39.269Z,44.05
2022-12-28T05:02:02.326Z,43.88
2022-12-28T05:02:24.269Z,43.92
2022-12-28T05:02:46.632Z,43.87
2022-12-28T05:03:08.584Z,43.81
2022-12-28T05:03:30.492Z,43.86
2022-12-28T05:03:58.005Z,43.80
2022-12-28T05:04:21.369Z,44.03
2022-12-28T05:04:43.196Z,43.76
2022-12-28T05:05:05.644Z,43.97
2022-12-28T05:05:28.071Z,43.87
2022-12-28T05:05:50.653Z,43.91
2022-12-28T05:06:15.051Z,43.97
2022-12-28T05:06:36.677Z,44.11
2022-12-28T05:06:58.290Z,44.23
2022-12-28T05:07:20.886Z,43.97
2022-12-28T05:07:42.699Z,43.96
2022-12-28T05:08:04.731Z,44.14
2022-12-28T05:08:26.325Z,44.19
2022-12-28T05:08:49.711Z,44.06
2022-12-28T05:09:11.531Z,43.98
2022-12-28T05:09:33.250Z,44.44
2022-12-28T05:09:55.031Z,44.33
2022-12-28T05:10:16.893Z,44.35
2022-12-28T05:10:39.669Z,44.15
2022-12-28T05:11:02.499Z,44.14
2022-12-28T05:11:26.268Z,44.53
2022-12-28T05:11:48.003Z,44.34
2022-12-28T05:12:10.728Z,44.52
2022-12-28T05:12:32.384Z,44.36
2022-12-28T05:12:54.302Z,44.33
2022-12-28T05:13:15.979Z,44.25
2022-12-28T05:13:38.717Z,44.34
2022-12-28T05:14:00.508Z,44.34
2022-12-28T05:14:22.235Z,44.40
2022-12-28T05:14:44.885Z,44.40
2022-12-28T05:15:07.731Z,44.41
2022-12-28T05:15:29.380Z,44.27
2022-12-28T05:15:51.080Z,44.08
2022-12-28T05:16:16.956Z,44.09
2022-12-28T05:16:38.707Z,44.50
2022-12-28T05:17:00.372Z,44.42
2022-12-28T05:17:22.086Z,44.36
2022-12-28T05:17:44.830Z,44.44
2022-12-28T05:18:06.503Z,44.72
2022-12-28T05:18:28.459Z,44.89
2022-12-28T05:18:50.602Z,44.90
2022-12-28T05:19:13.367Z,44.85
2022-12-28T05:19:35.005Z,44.84
2022-12-28T05:19:56.633Z,44.85
2022-12-28T05:20:20.519Z,44.61
2022-12-28T05:20:43.206Z,44.61
2022-12-28T05:21:07.168Z,44.46
2022-12-28T05:21:29.384Z,44.48
2022-12-28T05:21:52.251Z,44.60
2022-12-28T05:22:15.645Z,44.57
2022-12-28T05:22:40.925Z,44.68
2022-12-28T05:23:02.979Z,44.67
2022-12-28T05:23:26.106Z,44.60
2022-12-28T05:23:49.170Z,44.63
2022-12-28T05:24:11.191Z,44.54
2022-12-28T05:24:34.036Z,44.70
2022-12-28T05:24:57.065Z,44.62
2022-12-28T05:25:18.934Z,44.62
2022-12-28T05:25:40.614Z,44.71
2022-12-28T05:26:02.726Z,44.46
2022-12-28T05:26:27.719Z,44.42
2022-12-28T05:26:49.716Z,44.41
2022-12-28T05:27:11.769Z,44.30
2022-12-28T05:27:34.252Z,44.53
2022-12-28T05:27:57.621Z,44.23
2022-12-28T05:28:19.410Z,44.51
2022-12-28T05:28:41.702Z,44.78
2022-12-28T05:29:03.465Z,44.72
2022-12-28T05:29:26.496Z,44.87
2022-12-28T05:29:48.183Z,44.83
2022-12-28T05:30:10.887Z,45.04
2022-12-28T05:30:32.750Z,45.00
2022-12-28T05:31:00.821Z,45.15
2022-12-28T05:31:25.957Z,45.54
2022-12-28T05:31:47.938Z,45.59
2022-12-28T05:32:10.145Z,45.31
2022-12-28T05:32:33.922Z,45.42
2022-12-28T05:32:55.601Z,45.26
2022-12-28T05:33:17.609Z,45.16
2022-12-28T05:33:40.265Z,45.63
2022-12-28T05:34:03.038Z,45.62
2022-12-28T05:34:24.926Z,45.54